sensor_id;sensor_type;location;lat;lon;timestamp;temperature;humidity
19483;DHT22;9882;51.166;6.992;2023-05-07T00:00:51;17.20;99.90
19483;DHT22;9882;51.166;6.992;2023-05-07T00:03:22;17.20;99.90
19483;DHT22;9882;51.166;6.992;2023-05-07T00:05:51;17.20;99.90
19483;DHT22;9882;51.166;6.992;2023-05-07T00:08:20;17.20;99.90
19483;DHT22;9882;51.166;6.992;2023-05-07T00:10:54;17.20;99.90
19483;DHT22;9882;51.166;6.992;2023-05-07T00:13:23;17.20;99.90
19483;DHT22;9882;51.166;6.992;2023-05-07T00:15:53;17.30;99.90
19483;DHT22;9882;51.166;6.992;2023-05-07T00:18:24;17.20;99.90
19483;DHT22;9882;51.166;6.992;2023-05-07T00:20:55;17.30;99.90
19483;DHT22;9882;51.166;6.992;2023-05-07T00:23:31;17.30;99.90
19483;DHT22;9882;51.166;6.992;2023-05-07T00:25:59;17.20;99.90
19483;DHT22;9882;51.166;6.992;2023-05-07T00:28:28;17.30;99.90
19483;DHT22;9882;51.166;6.992;2023-05-07T00:30:58;17.20;99.90
19483;DHT22;9882;51.166;6.992;2023-05-07T00:33:27;17.20;99.90
19483;DHT22;9882;51.166;6.992;2023-05-07T00:35:55;17.10;99.90
19483;DHT22;9882;51.166;6.992;2023-05-07T00:38:25;17.10;99.90
19483;DHT22;9882;51.166;6.992;2023-05-07T00:40:54;17.10;99.90
19483;DHT22;9882;51.166;6.992;2023-05-07T00:43:22;17.10;99.90
19483;DHT22;9882;51.166;6.992;2023-05-07T00:45:55;17.10;99.90
19483;DHT22;9882;51.166;6.992;2023-05-07T00:48:34;17.30;99.90
19483;DHT22;9882;51.166;6.992;2023-05-07T00:51:09;17.10;99.90
19483;DHT22;9882;51.166;6.992;2023-05-07T00:53:43;17.10;99.90
19483;DHT22;9882;51.166;6.992;2023-05-07T00:56:12;17.10;99.90
19483;DHT22;9882;51.166;6.992;2023-05-07T00:58:41;17.10;99.90
19483;DHT22;9882;51.166;6.992;2023-05-07T01:01:09;17.10;99.90
19483;DHT22;9882;51.166;6.992;2023-05-07T01:03:40;17.10;99.90
19483;DHT22;9882;51.166;6.992;2023-05-07T01:06:12;17.20;99.90
19483;DHT22;9882;51.166;6.992;2023-05-07T01:08:44;17.00;99.90
19483;DHT22;9882;51.166;6.992;2023-05-07T01:11:14;17.00;99.90
19483;DHT22;9882;51.166;6.992;2023-05-07T01:13:43;17.10;99.90
19483;DHT22;9882;51.166;6.992;2023-05-07T01:16:12;17.00;99.90
19483;DHT22;9882;51.166;6.992;2023-05-07T01:18:42;17.10;99.90
19483;DHT22;9882;51.166;6.992;2023-05-07T01:21:12;17.00;99.90
19483;DHT22;9882;51.166;6.992;2023-05-07T01:23:46;17.00;99.90
19483;DHT22;9882;51.166;6.992;2023-05-07T01:26:15;17.00;99.90
19483;DHT22;9882;51.166;6.992;2023-05-07T01:28:47;16.90;99.90
19483;DHT22;9882;51.166;6.992;2023-05-07T01:31:16;17.00;99.90
19483;DHT22;9882;51.166;6.992;2023-05-07T01:33:48;16.90;99.90
19483;DHT22;9882;51.166;6.992;2023-05-07T01:36:18;17.00;99.90
19483;DHT22;9882;51.166;6.992;2023-05-07T01:39:12;16.90;99.90
19483;DHT22;9882;51.166;6.992;2023-05-07T01:41:41;16.90;99.90
19483;DHT22;9882;51.166;6.992;2023-05-07T01:44:12;17.00;99.90
19483;DHT22;9882;51.166;6.992;2023-05-07T01:46:43;16.80;99.90
19483;DHT22;9882;51.166;6.992;2023-05-07T01:49:12;16.80;99.90
19483;DHT22;9882;51.166;6.992;2023-05-07T01:51:41;16.80;99.90
19483;DHT22;9882;51.166;6.992;2023-05-07T01:54:11;16.70;99.90
19483;DHT22;9882;51.166;6.992;2023-05-07T01:56:50;16.70;99.90
19483;DHT22;9882;51.166;6.992;2023-05-07T01:59:25;16.80;99.90
19483;DHT22;9882;51.166;6.992;2023-05-07T02:01:54;16.80;99.90
19483;DHT22;9882;51.166;6.992;2023-05-07T02:04:29;16.60;99.90
19483;DHT22;9882;51.166;6.992;2023-05-07T02:07:00;16.60;99.90
19483;DHT22;9882;51.166;6.992;2023-05-07T02:09:36;16.50;99.90
19483;DHT22;9882;51.166;6.992;2023-05-07T02:12:05;16.60;99.90
19483;DHT22;9882;51.166;6.992;2023-05-07T02:14:34;16.60;99.90
19483;DHT22;9882;51.166;6.992;2023-05-07T02:17:03;16.60;99.90
19483;DHT22;9882;51.166;6.992;2023-05-07T02:19:33;16.60;99.90
19483;DHT22;9882;51.166;6.992;2023-05-07T02:22:06;16.60;99.90
19483;DHT22;9882;51.166;6.992;2023-05-07T02:24:39;16.60;99.90
19483;DHT22;9882;51.166;6.992;2023-05-07T02:27:08;16.60;99.90
19483;DHT22;9882;51.166;6.992;2023-05-07T02:29:37;16.60;99.90
19483;DHT22;9882;51.166;6.992;2023-05-07T02:32:07;16.60;99.90
19483;DHT22;9882;51.166;6.992;2023-05-07T02:34:35;16.60;99.90
19483;DHT22;9882;51.166;6.992;2023-05-07T02:37:04;16.50;99.90
19483;DHT22;9882;51.166;6.992;2023-05-07T02:39:33;16.70;99.90
19483;DHT22;9882;51.166;6.992;2023-05-07T02:42:03;16.50;99.90
19483;DHT22;9882;51.166;6.992;2023-05-07T02:44:31;16.50;99.90
19483;DHT22;9882;51.166;6.992;2023-05-07T02:47:00;16.50;99.90
19483;DHT22;9882;51.166;6.992;2023-05-07T02:49:32;16.50;99.90
19483;DHT22;9882;51.166;6.992;2023-05-07T02:52:01;16.50;99.90
19483;DHT22;9882;51.166;6.992;2023-05-07T02:54:32;16.40;99.90
19483;DHT22;9882;51.166;6.992;2023-05-07T02:57:02;16.40;99.90
19483;DHT22;9882;51.166;6.992;2023-05-07T02:59:31;16.40;99.90
19483;DHT22;9882;51.166;6.992;2023-05-07T03:01:59;16.30;99.90
19483;DHT22;9882;51.166;6.992;2023-05-07T03:04:28;16.30;99.90
19483;DHT22;9882;51.166;6.992;2023-05-07T03:06:56;16.30;99.90
19483;DHT22;9882;51.166;6.992;2023-05-07T03:09:25;16.30;99.90
19483;DHT22;9882;51.166;6.992;2023-05-07T03:11:59;16.30;99.90
19483;DHT22;9882;51.166;6.992;2023-05-07T03:14:30;16.30;99.90
19483;DHT22;9882;51.166;6.992;2023-05-07T03:16:58;16.20;99.90
19483;DHT22;9882;51.166;6.992;2023-05-07T03:19:27;16.20;99.90
19483;DHT22;9882;51.166;6.992;2023-05-07T03:21:58;16.10;99.90
19483;DHT22;9882;51.166;6.992;2023-05-07T03:24:26;16.00;99.90
19483;DHT22;9882;51.166;6.992;2023-05-07T03:26:55;16.10;99.90
19483;DHT22;9882;51.166;6.992;2023-05-07T03:29:30;16.10;99.90
19483;DHT22;9882;51.166;6.992;2023-05-07T03:31:59;16.10;99.90
19483;DHT22;9882;51.166;6.992;2023-05-07T03:34:28;16.00;99.90
19483;DHT22;9882;51.166;6.992;2023-05-07T03:36:58;16.00;99.90
19483;DHT22;9882;51.166;6.992;2023-05-07T03:39:26;16.00;99.90
19483;DHT22;9882;51.166;6.992;2023-05-07T03:41:55;16.00;99.90
19483;DHT22;9882;51.166;6.992;2023-05-07T03:44:23;15.90;99.90
19483;DHT22;9882;51.166;6.992;2023-05-07T03:46:54;16.00;99.90
19483;DHT22;9882;51.166;6.992;2023-05-07T03:49:22;16.00;99.90
19483;DHT22;9882;51.166;6.992;2023-05-07T03:51:51;15.90;99.90
19483;DHT22;9882;51.166;6.992;2023-05-07T03:54:27;15.90;99.90
19483;DHT22;9882;51.166;6.992;2023-05-07T03:56:57;15.90;99.90
19483;DHT22;9882;51.166;6.992;2023-05-07T03:59:26;15.90;99.90
19483;DHT22;9882;51.166;6.992;2023-05-07T04:01:59;15.80;99.90
19483;DHT22;9882;51.166;6.992;2023-05-07T04:04:30;15.80;99.90
19483;DHT22;9882;51.166;6.992;2023-05-07T04:07:00;15.80;99.90
19483;DHT22;9882;51.166;6.992;2023-05-07T04:09:30;15.70;99.90
19483;DHT22;9882;51.166;6.992;2023-05-07T04:12:05;15.70;99.90
19483;DHT22;9882;51.166;6.992;2023-05-07T04:14:34;15.70;99.90
19483;DHT22;9882;51.166;6.992;2023-05-07T04:17:05;15.70;99.90
19483;DHT22;9882;51.166;6.992;2023-05-07T04:19:38;15.60;99.90
19483;DHT22;9882;51.166;6.992;2023-05-07T04:22:07;15.60;99.90
19483;DHT22;9882;51.166;6.992;2023-05-07T04:24:41;15.60;99.90
19483;DHT22;9882;51.166;6.992;2023-05-07T04:27:11;15.70;99.90
19483;DHT22;9882;51.166;6.992;2023-05-07T04:29:44;15.60;99.90
19483;DHT22;9882;51.166;6.992;2023-05-07T04:32:22;15.80;99.90
19483;DHT22;9882;51.166;6.992;2023-05-07T04:34:55;15.70;99.90
19483;DHT22;9882;51.166;6.992;2023-05-07T04:37:25;15.60;99.90
19483;DHT22;9882;51.166;6.992;2023-05-07T04:39:56;15.60;99.90
19483;DHT22;9882;51.166;6.992;2023-05-07T04:42:28;15.50;99.90
19483;DHT22;9882;51.166;6.992;2023-05-07T04:45:12;15.60;99.90
19483;DHT22;9882;51.166;6.992;2023-05-07T04:47:44;15.60;99.90
19483;DHT22;9882;51.166;6.992;2023-05-07T04:50:13;15.60;99.90
19483;DHT22;9882;51.166;6.992;2023-05-07T04:52:43;15.50;99.90
19483;DHT22;9882;51.166;6.992;2023-05-07T04:55:11;15.50;99.90
19483;DHT22;9882;51.166;6.992;2023-05-07T04:57:41;15.60;99.90
19483;DHT22;9882;51.166;6.992;2023-05-07T05:00:13;15.60;99.90
19483;DHT22;9882;51.166;6.992;2023-05-07T05:02:46;15.50;99.90
19483;DHT22;9882;51.166;6.992;2023-05-07T05:05:19;15.60;99.90
19483;DHT22;9882;51.166;6.992;2023-05-07T05:07:50;15.60;99.90
19483;DHT22;9882;51.166;6.992;2023-05-07T05:10:21;15.50;99.90
19483;DHT22;9882;51.166;6.992;2023-05-07T05:12:50;15.70;99.90
19483;DHT22;9882;51.166;6.992;2023-05-07T05:15:24;15.60;99.90
19483;DHT22;9882;51.166;6.992;2023-05-07T05:18:16;15.60;99.90
19483;DHT22;9882;51.166;6.992;2023-05-07T05:24:18;15.50;99.90
19483;DHT22;9882;51.166;6.992;2023-05-07T05:34:42;15.50;99.90
19483;DHT22;9882;51.166;6.992;2023-05-07T05:37:36;15.60;99.90
19483;DHT22;9882;51.166;6.992;2023-05-07T05:43:15;15.60;99.90
19483;DHT22;9882;51.166;6.992;2023-05-07T05:45:44;15.40;99.90
19483;DHT22;9882;51.166;6.992;2023-05-07T05:48:12;15.50;99.90
19483;DHT22;9882;51.166;6.992;2023-05-07T05:50:43;15.50;99.90
19483;DHT22;9882;51.166;6.992;2023-05-07T05:53:12;15.50;99.90
19483;DHT22;9882;51.166;6.992;2023-05-07T05:55:41;15.50;99.90
19483;DHT22;9882;51.166;6.992;2023-05-07T05:58:12;15.60;99.90
19483;DHT22;9882;51.166;6.992;2023-05-07T06:00:49;15.60;99.90
19483;DHT22;9882;51.166;6.992;2023-05-07T06:03:21;15.60;99.90
19483;DHT22;9882;51.166;6.992;2023-05-07T06:05:52;15.70;99.90
19483;DHT22;9882;51.166;6.992;2023-05-07T06:08:22;15.70;99.90
19483;DHT22;9882;51.166;6.992;2023-05-07T06:10:50;15.70;99.90
19483;DHT22;9882;51.166;6.992;2023-05-07T06:13:19;15.70;99.90
19483;DHT22;9882;51.166;6.992;2023-05-07T06:15:51;15.80;99.90
19483;DHT22;9882;51.166;6.992;2023-05-07T06:18:20;15.80;99.90
19483;DHT22;9882;51.166;6.992;2023-05-07T06:20:48;15.80;99.90
19483;DHT22;9882;51.166;6.992;2023-05-07T06:23:25;15.90;99.90
19483;DHT22;9882;51.166;6.992;2023-05-07T06:25:53;16.00;99.90
19483;DHT22;9882;51.166;6.992;2023-05-07T06:28:26;15.90;99.90
19483;DHT22;9882;51.166;6.992;2023-05-07T06:30:55;16.00;99.90
19483;DHT22;9882;51.166;6.992;2023-05-07T06:33:24;16.00;99.90
19483;DHT22;9882;51.166;6.992;2023-05-07T06:35:52;16.10;99.90
19483;DHT22;9882;51.166;6.992;2023-05-07T06:38:24;16.20;99.90
19483;DHT22;9882;51.166;6.992;2023-05-07T06:40:53;16.20;99.90
19483;DHT22;9882;51.166;6.992;2023-05-07T06:43:23;16.20;99.90
19483;DHT22;9882;51.166;6.992;2023-05-07T06:46:00;16.30;99.90
19483;DHT22;9882;51.166;6.992;2023-05-07T06:48:29;16.40;99.90
19483;DHT22;9882;51.166;6.992;2023-05-07T06:51:04;16.40;99.90
19483;DHT22;9882;51.166;6.992;2023-05-07T06:53:40;16.40;99.90
19483;DHT22;9882;51.166;6.992;2023-05-07T06:56:15;16.50;99.90
19483;DHT22;9882;51.166;6.992;2023-05-07T06:58:43;16.50;99.90
19483;DHT22;9882;51.166;6.992;2023-05-07T07:01:12;16.50;99.90
19483;DHT22;9882;51.166;6.992;2023-05-07T07:03:40;16.40;99.90
19483;DHT22;9882;51.166;6.992;2023-05-07T07:06:09;16.30;99.90
19483;DHT22;9882;51.166;6.992;2023-05-07T07:08:39;16.30;99.90
19483;DHT22;9882;51.166;6.992;2023-05-07T07:11:16;16.30;99.90
19483;DHT22;9882;51.166;6.992;2023-05-07T07:13:44;16.50;99.90
19483;DHT22;9882;51.166;6.992;2023-05-07T07:16:13;16.50;99.90
19483;DHT22;9882;51.166;6.992;2023-05-07T07:18:42;16.70;99.90
19483;DHT22;9882;51.166;6.992;2023-05-07T07:21:41;16.90;99.90
19483;DHT22;9882;51.166;6.992;2023-05-07T07:24:38;17.00;99.90
19483;DHT22;9882;51.166;6.992;2023-05-07T07:27:26;16.90;99.90
19483;DHT22;9882;51.166;6.992;2023-05-07T07:30:23;17.00;99.90
19483;DHT22;9882;51.166;6.992;2023-05-07T07:33:02;17.00;99.90
19483;DHT22;9882;51.166;6.992;2023-05-07T07:35:34;17.00;99.90
19483;DHT22;9882;51.166;6.992;2023-05-07T07:38:59;17.20;99.90
19483;DHT22;9882;51.166;6.992;2023-05-07T07:41:59;17.40;99.90
19483;DHT22;9882;51.166;6.992;2023-05-07T07:44:29;17.30;99.90
19483;DHT22;9882;51.166;6.992;2023-05-07T07:47:34;17.40;99.90
19483;DHT22;9882;51.166;6.992;2023-05-07T07:50:05;17.50;99.90
19483;DHT22;9882;51.166;6.992;2023-05-07T07:52:38;17.50;99.90
19483;DHT22;9882;51.166;6.992;2023-05-07T07:55:41;17.60;99.90
19483;DHT22;9882;51.166;6.992;2023-05-07T07:58:14;17.60;99.90
19483;DHT22;9882;51.166;6.992;2023-05-07T08:00:45;17.40;99.90
19483;DHT22;9882;51.166;6.992;2023-05-07T08:03:15;17.50;99.90
19483;DHT22;9882;51.166;6.992;2023-05-07T08:09:17;17.80;99.90
19483;DHT22;9882;51.166;6.992;2023-05-07T08:11:47;17.70;99.90
19483;DHT22;9882;51.166;6.992;2023-05-07T08:14:41;17.60;99.90
19483;DHT22;9882;51.166;6.992;2023-05-07T08:18:09;17.80;99.90
19483;DHT22;9882;51.166;6.992;2023-05-07T08:21:06;17.90;99.90
19483;DHT22;9882;51.166;6.992;2023-05-07T08:23:49;17.90;99.90
19483;DHT22;9882;51.166;6.992;2023-05-07T08:26:17;17.80;99.90
19483;DHT22;9882;51.166;6.992;2023-05-07T08:28:48;18.10;99.90
19483;DHT22;9882;51.166;6.992;2023-05-07T08:31:18;17.90;99.90
19483;DHT22;9882;51.166;6.992;2023-05-07T08:33:47;18.00;99.90
19483;DHT22;9882;51.166;6.992;2023-05-07T08:36:15;18.20;99.90
19483;DHT22;9882;51.166;6.992;2023-05-07T08:38:46;18.20;99.90
19483;DHT22;9882;51.166;6.992;2023-05-07T08:41:15;18.30;99.90
19483;DHT22;9882;51.166;6.992;2023-05-07T08:43:47;18.10;99.90
19483;DHT22;9882;51.166;6.992;2023-05-07T08:46:22;18.20;99.90
19483;DHT22;9882;51.166;6.992;2023-05-07T08:48:56;18.30;99.90
19483;DHT22;9882;51.166;6.992;2023-05-07T08:51:30;18.50;99.90
19483;DHT22;9882;51.166;6.992;2023-05-07T08:54:01;18.70;99.90
19483;DHT22;9882;51.166;6.992;2023-05-07T08:56:33;18.50;99.90
19483;DHT22;9882;51.166;6.992;2023-05-07T08:59:02;18.70;99.90
19483;DHT22;9882;51.166;6.992;2023-05-07T09:01:32;18.90;99.90
19483;DHT22;9882;51.166;6.992;2023-05-07T09:04:07;19.10;99.90
19483;DHT22;9882;51.166;6.992;2023-05-07T09:06:41;19.00;99.90
19483;DHT22;9882;51.166;6.992;2023-05-07T09:09:14;19.10;99.90
19483;DHT22;9882;51.166;6.992;2023-05-07T09:11:45;19.00;99.90
19483;DHT22;9882;51.166;6.992;2023-05-07T09:14:21;19.20;99.90
19483;DHT22;9882;51.166;6.992;2023-05-07T09:16:56;19.20;99.90
19483;DHT22;9882;51.166;6.992;2023-05-07T09:19:27;19.30;99.90
19483;DHT22;9882;51.166;6.992;2023-05-07T09:22:00;19.20;99.90
19483;DHT22;9882;51.166;6.992;2023-05-07T09:24:40;19.30;99.90
19483;DHT22;9882;51.166;6.992;2023-05-07T09:27:11;19.40;99.90
19483;DHT22;9882;51.166;6.992;2023-05-07T09:29:43;19.30;99.90
19483;DHT22;9882;51.166;6.992;2023-05-07T09:32:17;19.40;99.90
19483;DHT22;9882;51.166;6.992;2023-05-07T09:34:52;19.50;99.90
19483;DHT22;9882;51.166;6.992;2023-05-07T09:37:26;19.60;99.90
19483;DHT22;9882;51.166;6.992;2023-05-07T09:40:06;19.80;99.90
19483;DHT22;9882;51.166;6.992;2023-05-07T09:42:36;19.80;99.90
19483;DHT22;9882;51.166;6.992;2023-05-07T09:45:08;19.90;99.90
19483;DHT22;9882;51.166;6.992;2023-05-07T09:47:42;19.80;99.90
19483;DHT22;9882;51.166;6.992;2023-05-07T09:50:12;19.90;99.90
19483;DHT22;9882;51.166;6.992;2023-05-07T09:52:44;19.90;99.90
19483;DHT22;9882;51.166;6.992;2023-05-07T09:55:15;20.10;99.90
19483;DHT22;9882;51.166;6.992;2023-05-07T09:57:56;20.10;99.90
19483;DHT22;9882;51.166;6.992;2023-05-07T10:00:37;20.00;99.90
19483;DHT22;9882;51.166;6.992;2023-05-07T10:03:21;20.10;99.90
19483;DHT22;9882;51.166;6.992;2023-05-07T10:05:58;20.10;99.90
19483;DHT22;9882;51.166;6.992;2023-05-07T10:08:34;20.30;99.90
19483;DHT22;9882;51.166;6.992;2023-05-07T10:11:04;20.30;99.90
19483;DHT22;9882;51.166;6.992;2023-05-07T10:13:35;20.20;99.90
19483;DHT22;9882;51.166;6.992;2023-05-07T10:16:07;20.20;99.90
19483;DHT22;9882;51.166;6.992;2023-05-07T10:19:08;20.40;99.90
19483;DHT22;9882;51.166;6.992;2023-05-07T10:21:51;20.40;99.90
19483;DHT22;9882;51.166;6.992;2023-05-07T10:24:59;20.50;99.90
19483;DHT22;9882;51.166;6.992;2023-05-07T10:28:27;20.70;99.90
19483;DHT22;9882;51.166;6.992;2023-05-07T10:31:04;20.90;99.90
19483;DHT22;9882;51.166;6.992;2023-05-07T10:33:54;21.00;99.90
19483;DHT22;9882;51.166;6.992;2023-05-07T10:36:26;21.00;99.90
19483;DHT22;9882;51.166;6.992;2023-05-07T10:39:14;21.00;99.90
19483;DHT22;9882;51.166;6.992;2023-05-07T10:41:43;21.10;99.90
19483;DHT22;9882;51.166;6.992;2023-05-07T10:44:25;21.30;99.90
19483;DHT22;9882;51.166;6.992;2023-05-07T10:47:13;21.20;99.90
19483;DHT22;9882;51.166;6.992;2023-05-07T10:50:47;21.20;99.90
19483;DHT22;9882;51.166;6.992;2023-05-07T10:53:23;21.30;99.90
19483;DHT22;9882;51.166;6.992;2023-05-07T10:56:27;21.50;99.90
19483;DHT22;9882;51.166;6.992;2023-05-07T10:59:51;21.60;99.90
19483;DHT22;9882;51.166;6.992;2023-05-07T11:03:09;21.50;99.90
19483;DHT22;9882;51.166;6.992;2023-05-07T11:13:12;21.90;99.90
19483;DHT22;9882;51.166;6.992;2023-05-07T11:16:29;21.70;99.90
19483;DHT22;9882;51.166;6.992;2023-05-07T11:18:48;21.80;99.90
19483;DHT22;9882;51.166;6.992;2023-05-07T11:21:36;21.90;99.90
19483;DHT22;9882;51.166;6.992;2023-05-07T11:24:14;22.00;99.90
19483;DHT22;9882;51.166;6.992;2023-05-07T11:27:08;21.80;99.90
19483;DHT22;9882;51.166;6.992;2023-05-07T11:29:46;22.10;99.90
19483;DHT22;9882;51.166;6.992;2023-05-07T11:32:22;22.00;99.90
19483;DHT22;9882;51.166;6.992;2023-05-07T11:34:55;21.90;99.90
19483;DHT22;9882;51.166;6.992;2023-05-07T11:37:26;22.00;99.90
19483;DHT22;9882;51.166;6.992;2023-05-07T11:40:06;22.00;99.90
19483;DHT22;9882;51.166;6.992;2023-05-07T11:42:57;22.10;99.90
19483;DHT22;9882;51.166;6.992;2023-05-07T11:45:44;22.10;99.90
19483;DHT22;9882;51.166;6.992;2023-05-07T11:48:22;22.10;99.90
19483;DHT22;9882;51.166;6.992;2023-05-07T11:51:06;22.20;99.90
19483;DHT22;9882;51.166;6.992;2023-05-07T11:53:38;22.30;99.90
19483;DHT22;9882;51.166;6.992;2023-05-07T11:56:16;22.30;99.90
19483;DHT22;9882;51.166;6.992;2023-05-07T11:58:57;22.40;99.90
19483;DHT22;9882;51.166;6.992;2023-05-07T12:01:35;22.40;99.90
19483;DHT22;9882;51.166;6.992;2023-05-07T12:04:04;22.50;99.90
19483;DHT22;9882;51.166;6.992;2023-05-07T12:06:36;22.40;99.90
19483;DHT22;9882;51.166;6.992;2023-05-07T12:09:13;22.60;99.90
19483;DHT22;9882;51.166;6.992;2023-05-07T12:11:50;22.60;99.90
19483;DHT22;9882;51.166;6.992;2023-05-07T12:14:21;22.70;99.90
19483;DHT22;9882;51.166;6.992;2023-05-07T12:16:57;22.80;99.90
19483;DHT22;9882;51.166;6.992;2023-05-07T12:19:25;22.80;99.90
19483;DHT22;9882;51.166;6.992;2023-05-07T12:22:03;22.90;99.90
19483;DHT22;9882;51.166;6.992;2023-05-07T12:24:47;22.80;99.90
19483;DHT22;9882;51.166;6.992;2023-05-07T12:27:23;22.70;99.90
19483;DHT22;9882;51.166;6.992;2023-05-07T12:29:58;22.70;99.90
19483;DHT22;9882;51.166;6.992;2023-05-07T12:32:28;22.60;99.90
19483;DHT22;9882;51.166;6.992;2023-05-07T12:35:06;22.60;99.90
19483;DHT22;9882;51.166;6.992;2023-05-07T12:37:35;22.30;99.90
19483;DHT22;9882;51.166;6.992;2023-05-07T12:40:14;22.30;99.90
19483;DHT22;9882;51.166;6.992;2023-05-07T12:42:43;22.20;99.90
19483;DHT22;9882;51.166;6.992;2023-05-07T12:45:38;22.20;99.90
19483;DHT22;9882;51.166;6.992;2023-05-07T12:48:54;22.20;99.90
19483;DHT22;9882;51.166;6.992;2023-05-07T12:51:25;22.10;99.90
19483;DHT22;9882;51.166;6.992;2023-05-07T12:54:13;22.30;99.90
19483;DHT22;9882;51.166;6.992;2023-05-07T12:56:44;22.30;99.90
19483;DHT22;9882;51.166;6.992;2023-05-07T12:59:16;22.30;99.90
19483;DHT22;9882;51.166;6.992;2023-05-07T13:01:46;22.20;99.90
19483;DHT22;9882;51.166;6.992;2023-05-07T13:04:15;22.30;99.90
19483;DHT22;9882;51.166;6.992;2023-05-07T13:06:44;22.20;99.90
19483;DHT22;9882;51.166;6.992;2023-05-07T13:09:13;22.10;99.90
19483;DHT22;9882;51.166;6.992;2023-05-07T13:11:44;22.10;99.90
19483;DHT22;9882;51.166;6.992;2023-05-07T13:14:13;22.20;99.90
19483;DHT22;9882;51.166;6.992;2023-05-07T13:16:41;22.30;99.90
19483;DHT22;9882;51.166;6.992;2023-05-07T13:19:10;22.30;99.90
19483;DHT22;9882;51.166;6.992;2023-05-07T13:21:40;22.30;99.90
19483;DHT22;9882;51.166;6.992;2023-05-07T13:24:08;22.10;99.90
19483;DHT22;9882;51.166;6.992;2023-05-07T13:26:37;22.00;99.90
19483;DHT22;9882;51.166;6.992;2023-05-07T13:29:05;22.10;99.90
19483;DHT22;9882;51.166;6.992;2023-05-07T13:31:33;22.20;99.90
19483;DHT22;9882;51.166;6.992;2023-05-07T13:34:02;22.10;99.90
19483;DHT22;9882;51.166;6.992;2023-05-07T13:36:31;21.80;99.90
19483;DHT22;9882;51.166;6.992;2023-05-07T13:39:03;21.70;99.90
19483;DHT22;9882;51.166;6.992;2023-05-07T13:41:33;22.00;99.90
19483;DHT22;9882;51.166;6.992;2023-05-07T13:44:01;21.60;99.90
19483;DHT22;9882;51.166;6.992;2023-05-07T13:46:30;21.60;99.90
19483;DHT22;9882;51.166;6.992;2023-05-07T13:48:58;21.50;99.90
19483;DHT22;9882;51.166;6.992;2023-05-07T13:51:27;21.60;99.90
19483;DHT22;9882;51.166;6.992;2023-05-07T13:53:55;21.60;99.90
19483;DHT22;9882;51.166;6.992;2023-05-07T13:56:26;21.70;99.90
19483;DHT22;9882;51.166;6.992;2023-05-07T13:58:58;21.60;99.90
19483;DHT22;9882;51.166;6.992;2023-05-07T14:01:27;21.70;99.90
19483;DHT22;9882;51.166;6.992;2023-05-07T14:03:56;21.50;99.90
19483;DHT22;9882;51.166;6.992;2023-05-07T14:06:26;21.70;99.90
19483;DHT22;9882;51.166;6.992;2023-05-07T14:08:58;21.70;99.90
19483;DHT22;9882;51.166;6.992;2023-05-07T14:11:29;22.00;99.90
19483;DHT22;9882;51.166;6.992;2023-05-07T14:13:58;22.10;99.90
19483;DHT22;9882;51.166;6.992;2023-05-07T14:16:27;21.80;99.90
19483;DHT22;9882;51.166;6.992;2023-05-07T14:18:56;21.60;99.90
19483;DHT22;9882;51.166;6.992;2023-05-07T14:21:25;21.50;99.90
19483;DHT22;9882;51.166;6.992;2023-05-07T14:23:58;21.60;99.90
19483;DHT22;9882;51.166;6.992;2023-05-07T14:26:28;20.00;99.90
19483;DHT22;9882;51.166;6.992;2023-05-07T14:28:57;19.90;99.90
19483;DHT22;9882;51.166;6.992;2023-05-07T14:31:26;20.00;99.90
19483;DHT22;9882;51.166;6.992;2023-05-07T14:33:54;19.10;99.90
19483;DHT22;9882;51.166;6.992;2023-05-07T14:36:26;18.60;99.90
19483;DHT22;9882;51.166;6.992;2023-05-07T14:38:59;19.40;99.90
19483;DHT22;9882;51.166;6.992;2023-05-07T14:41:34;18.60;99.90
19483;DHT22;9882;51.166;6.992;2023-05-07T14:44:03;18.20;99.90
19483;DHT22;9882;51.166;6.992;2023-05-07T14:46:32;18.10;99.90
19483;DHT22;9882;51.166;6.992;2023-05-07T14:49:02;18.40;99.90
19483;DHT22;9882;51.166;6.992;2023-05-07T14:51:32;17.80;99.90
19483;DHT22;9882;51.166;6.992;2023-05-07T14:54:03;18.20;99.90
19483;DHT22;9882;51.166;6.992;2023-05-07T14:56:34;18.30;99.90
19483;DHT22;9882;51.166;6.992;2023-05-07T14:59:03;18.70;99.90
19483;DHT22;9882;51.166;6.992;2023-05-07T15:01:36;19.00;99.90
19483;DHT22;9882;51.166;6.992;2023-05-07T15:04:12;18.90;99.90
19483;DHT22;9882;51.166;6.992;2023-05-07T15:06:54;19.50;99.90
19483;DHT22;9882;51.166;6.992;2023-05-07T15:10:44;19.80;99.90
19483;DHT22;9882;51.166;6.992;2023-05-07T15:16:19;20.20;99.90
19483;DHT22;9882;51.166;6.992;2023-05-07T15:19:00;20.30;99.90
19483;DHT22;9882;51.166;6.992;2023-05-07T15:21:36;20.30;99.90
19483;DHT22;9882;51.166;6.992;2023-05-07T15:24:10;20.20;99.90
19483;DHT22;9882;51.166;6.992;2023-05-07T15:26:42;19.60;99.90
19483;DHT22;9882;51.166;6.992;2023-05-07T15:29:38;19.80;99.90
19483;DHT22;9882;51.166;6.992;2023-05-07T15:32:35;19.70;99.90
19483;DHT22;9882;51.166;6.992;2023-05-07T15:35:11;19.80;99.90
19483;DHT22;9882;51.166;6.992;2023-05-07T15:38:47;19.50;99.90
19483;DHT22;9882;51.166;6.992;2023-05-07T15:44:41;19.00;99.90
19483;DHT22;9882;51.166;6.992;2023-05-07T15:47:09;19.30;99.90
19483;DHT22;9882;51.166;6.992;2023-05-07T15:49:39;19.40;99.90
19483;DHT22;9882;51.166;6.992;2023-05-07T15:52:08;19.40;99.90
19483;DHT22;9882;51.166;6.992;2023-05-07T15:54:37;19.80;99.90
19483;DHT22;9882;51.166;6.992;2023-05-07T15:57:06;20.00;99.90
19483;DHT22;9882;51.166;6.992;2023-05-07T15:59:35;20.10;99.90
19483;DHT22;9882;51.166;6.992;2023-05-07T16:02:03;19.80;99.90
19483;DHT22;9882;51.166;6.992;2023-05-07T16:04:32;19.90;99.90
19483;DHT22;9882;51.166;6.992;2023-05-07T16:07:32;19.90;99.90
19483;DHT22;9882;51.166;6.992;2023-05-07T16:10:43;20.10;99.90
19483;DHT22;9882;51.166;6.992;2023-05-07T16:29:28;20.10;99.90
19483;DHT22;9882;51.166;6.992;2023-05-07T16:59:38;20.30;99.90
19483;DHT22;9882;51.166;6.992;2023-05-07T17:02:51;20.30;99.90
19483;DHT22;9882;51.166;6.992;2023-05-07T17:05:20;20.30;99.90
19483;DHT22;9882;51.166;6.992;2023-05-07T17:07:51;20.40;99.90
19483;DHT22;9882;51.166;6.992;2023-05-07T17:10:21;20.50;99.90
19483;DHT22;9882;51.166;6.992;2023-05-07T17:12:51;20.60;99.90
19483;DHT22;9882;51.166;6.992;2023-05-07T17:15:20;20.40;99.90
19483;DHT22;9882;51.166;6.992;2023-05-07T17:17:56;20.50;99.90
19483;DHT22;9882;51.166;6.992;2023-05-07T17:20:28;20.50;99.90
19483;DHT22;9882;51.166;6.992;2023-05-07T17:23:00;20.60;99.90
19483;DHT22;9882;51.166;6.992;2023-05-07T17:25:38;20.60;99.90
19483;DHT22;9882;51.166;6.992;2023-05-07T17:28:18;20.60;99.90
19483;DHT22;9882;51.166;6.992;2023-05-07T17:30:47;20.60;99.90
19483;DHT22;9882;51.166;6.992;2023-05-07T17:33:17;20.60;99.90
19483;DHT22;9882;51.166;6.992;2023-05-07T17:35:47;20.60;99.90
19483;DHT22;9882;51.166;6.992;2023-05-07T17:38:16;20.60;99.90
19483;DHT22;9882;51.166;6.992;2023-05-07T17:40:44;20.60;99.90
19483;DHT22;9882;51.166;6.992;2023-05-07T17:43:14;20.60;99.90
19483;DHT22;9882;51.166;6.992;2023-05-07T17:45:43;20.50;99.90
19483;DHT22;9882;51.166;6.992;2023-05-07T17:48:11;20.50;99.90